Česky Dansk Deutsch English Español Suomi Français Magyar Italiano Nederlands norsk Polski Português svenska Türkçe

 

Het Weer

Bern / Belp (Zwitzerland)

08:50, 21 augustus 2016 (GMT)

NWNNE
WE
SWSSE
Home            
Bern / Belp Grenchen Neuchatel Payerne Les Eplatures Bale-Mulhouse Lausanne Sion Belfort Zurich-Kloten Pian Rosa Colmar Besancon Geneve-Cointrin Luxeuil Donaueschingen / Villingen Lugano Konstanz Dole Tavaux Lahr, CAN-AFB Monte Bisbino Saint Gallen-Altenrhein Milano / Malpensa

Om een weerknop op uw website of weblog te plaatsen, copieer onderstaande code en plak die in uw pagina. In het eerste vakje staat HTML-code, in het tweede vakje UBB-code.


Add to Google

Details

Wind speed:2 bf, 4 kn, 2.1 m/s, 4.6 miles/h, 7.4 km/h
Wind direction:WSW, 250°
Visibility:Greater than 10000 m, 10 km, 32800 ft, 6.2 miles
Clouds:Ein wenig bewölkt at 2100 ft, 640 m
Durchbrochene Bewölkung at 5000 ft, 1524 m
Temperature:17°C, 63°F
Dew-point:13°C, 55°F
Atmospheric pressure:1022 hPa, 766.6 mmHg, 30.18 inHg, 1.009 atm
Relative humidity:77.3 %
METAR:LSZB 210850Z 25004KT 9999 FEW021 BKN050 17/13 Q1022 NOSIG

Snelkoppelingen

Actuele weersinformatie van de hele wereld. Voeg locaties toe met het plus (+) symbool. Deze snelkoppelingen kunnen worden toegevoegd aan Google.

Lid van de Technetium groep

website free tracking
StatCounter NetStat W3C Validator

26-01-2022 06:30:03
astro.technetium.be money.technetium.be phote.technetium.be tafeltennistafel.technetium.be www.ligfiets.net